< < Back
Terminal Aerodrome Forecast


Current Version              Previous Versions:   1  2  3  4  5  6  7  8  9  

Terminal Aerodrome Forecast

357
FTUS44 KMRX 052323
TAFTYS
TAF
KTYS 052323Z 0600/0624 32009KT P6SM SCT030 BKN045
     FM060300 26008KT P6SM BKN035
     FM061400 35010G17KT P6SM SCT050=

Latest METAR

828
SAUS80 KWBC 070000 RRB
MTRTYS
METAR KTYS 062353Z 31005KT 10SM SCT050 BKN070 19/05 A2990 RMK AO2 SLP120
T01890050 10211 20183 53003


USA.gov is the U.S. government's official web portal to all federal, state and local government web resources and services.